Time;durP1;ratioP1;P1;durP2;ratioP2;P2;SDS_P1;SDS_P2;PMS_P1;PMS_P2;Temp;Humidity;BMP_temperature;BMP_pressure;BME280_temperature;BME280_humidity;BME280_pressure;Samples;Min_cycle;Max_cycle;Signal;HPM_P1;HPM_P2
2022/07/13 00:00:04;;;;;;;10.45;6.53;;;21.00;99.90;;;;;;5070651;28;20119;-67
2022/07/13 00:02:29;;;;;;;7.95;6.30;;;20.90;99.90;;;;;;5070667;28;20036;-67
2022/07/13 00:04:55;;;;;;;6.35;5.72;;;20.90;99.90;;;;;;5070790;28;20044;-67
2022/07/13 00:07:20;;;;;;;6.88;6.05;;;20.90;99.90;;;;;;5078034;28;20040;-67
2022/07/13 00:09:46;;;;;;;8.15;5.57;;;20.90;99.90;;;;;;5088119;28;20048;-67
2022/07/13 00:12:12;;;;;;;7.70;6.20;;;20.80;99.90;;;;;;5074157;28;20119;-67
2022/07/13 00:14:37;;;;;;;6.43;5.88;;;20.80;99.90;;;;;;5070915;28;20045;-67
2022/07/13 00:17:03;;;;;;;10.95;6.05;;;20.80;99.90;;;;;;5070269;28;20044;-67
2022/07/13 00:19:28;;;;;;;6.80;6.07;;;20.80;99.90;;;;;;5070471;28;20099;-67
2022/07/13 00:21:55;;;;;;;6.72;6.07;;;20.80;99.90;;;;;;5070261;28;20048;-67
2022/07/13 00:24:21;;;;;;;7.65;6.60;;;20.80;99.90;;;;;;5070136;28;20044;-67
2022/07/13 00:26:47;;;;;;;8.23;6.68;;;20.80;99.90;;;;;;5070287;28;20094;-67
2022/07/13 00:29:12;;;;;;;12.10;7.50;;;20.80;99.90;;;;;;5070558;28;20433;-67
2022/07/13 00:31:38;;;;;;;7.13;6.43;;;20.70;99.90;;;;;;5068761;28;20136;-67
2022/07/13 00:34:03;;;;;;;7.93;7.13;;;20.70;99.90;;;;;;5070028;28;20517;-67
2022/07/13 00:36:29;;;;;;;8.38;7.13;;;20.70;99.90;;;;;;5068560;28;20052;-67
2022/07/13 00:38:54;;;;;;;7.75;6.88;;;20.80;99.90;;;;;;5070228;28;20033;-67
2022/07/13 00:41:20;;;;;;;9.52;7.78;;;20.80;99.90;;;;;;5070035;28;20036;-67
2022/07/13 00:43:45;;;;;;;9.27;7.45;;;20.80;99.90;;;;;;5068618;28;20477;-67
2022/07/13 00:46:13;;;;;;;8.45;7.38;;;20.80;99.90;;;;;;5069916;28;20062;-68
2022/07/13 00:48:39;;;;;;;8.45;7.05;;;20.80;99.90;;;;;;5069975;28;20139;-68
2022/07/13 00:51:06;;;;;;;7.85;7.05;;;20.80;99.90;;;;;;5069920;28;20117;-68
2022/07/13 00:53:36;;;;;;;9.80;8.35;;;20.70;99.90;;;;;;5069630;28;20036;-67
2022/07/13 00:56:03;;;;;;;9.32;8.43;;;20.80;99.90;;;;;;5070033;28;20408;-68
2022/07/13 00:58:29;;;;;;;10.88;7.65;;;20.70;99.90;;;;;;5069895;28;20064;-68
2022/07/13 01:00:55;;;;;;;10.48;7.95;;;20.80;99.90;;;;;;5069650;28;20032;-68
2022/07/13 01:03:21;;;;;;;8.82;8.02;;;20.70;99.90;;;;;;5068483;28;20115;-68
2022/07/13 01:05:47;;;;;;;9.45;7.40;;;20.70;99.90;;;;;;5069764;28;20124;-68
2022/07/13 01:08:13;;;;;;;12.07;9.05;;;20.80;99.90;;;;;;5070008;28;20072;-68
2022/07/13 01:10:41;;;;;;;9.95;8.50;;;20.70;99.90;;;;;;5069932;28;20599;-68
2022/07/13 01:13:10;;;;;;;13.35;9.75;;;20.70;99.90;;;;;;5071297;28;20040;-68
2022/07/13 01:15:36;;;;;;;11.30;8.55;;;20.70;99.90;;;;;;5083813;28;20036;-68
2022/07/13 01:18:02;;;;;;;12.00;9.90;;;20.70;99.90;;;;;;5086922;28;20063;-68
2022/07/13 01:20:28;;;;;;;10.40;9.30;;;20.70;99.90;;;;;;5070670;28;20392;-68
2022/07/13 01:22:54;;;;;;;11.75;9.35;;;20.80;99.90;;;;;;5069860;28;20428;-68
2022/07/13 01:25:20;;;;;;;12.02;9.00;;;20.80;99.90;;;;;;5069679;28;20401;-68
2022/07/13 01:27:47;;;;;;;9.77;8.88;;;20.70;99.90;;;;;;5072554;28;20033;-68
2022/07/13 01:30:14;;;;;;;10.85;9.27;;;20.80;99.90;;;;;;5073240;28;20119;-68
2022/07/13 01:32:46;;;;;;;14.90;9.75;;;20.80;99.90;;;;;;5072819;28;20115;-68
2022/07/13 01:35:12;;;;;;;12.98;10.20;;;20.80;99.90;;;;;;5073263;28;20119;-68
2022/07/13 01:37:38;;;;;;;14.05;10.25;;;20.80;99.90;;;;;;5073120;28;20044;-68
2022/07/13 01:40:04;;;;;;;12.20;9.23;;;20.80;99.90;;;;;;5071647;28;20056;-68
2022/07/13 01:42:30;;;;;;;9.93;8.93;;;20.70;99.90;;;;;;5072713;28;20052;-68
2022/07/13 01:44:57;;;;;;;11.98;9.07;;;20.80;99.90;;;;;;5072971;28;20036;-68
2022/07/13 01:47:22;;;;;;;10.43;8.32;;;20.80;99.90;;;;;;5072706;28;20132;-68
2022/07/13 01:49:48;;;;;;;10.18;8.50;;;20.80;99.90;;;;;;5072954;28;20487;-68
2022/07/13 01:52:14;;;;;;;11.77;8.63;;;20.80;99.90;;;;;;5054675;28;20052;-68
2022/07/13 01:54:39;;;;;;;13.13;8.50;;;20.80;99.90;;;;;;5072651;28;20082;-68
2022/07/13 01:57:05;;;;;;;9.88;8.05;;;20.80;99.90;;;;;;5071342;28;20049;-68
2022/07/13 01:59:30;;;;;;;10.82;8.77;;;20.80;99.90;;;;;;5071377;28;20055;-68
2022/07/13 02:01:56;;;;;;;8.68;7.60;;;20.80;99.90;;;;;;5072435;28;20044;-68
2022/07/13 02:04:21;;;;;;;10.75;7.82;;;20.80;99.90;;;;;;5072434;28;20032;-68
2022/07/13 02:06:47;;;;;;;13.23;8.32;;;20.80;99.90;;;;;;5072665;28;20211;-68
2022/07/13 02:09:12;;;;;;;9.73;8.00;;;20.80;99.90;;;;;;5072684;28;20040;-68
2022/07/13 02:11:38;;;;;;;9.27;8.07;;;20.70;99.90;;;;;;5072275;28;20407;-68
2022/07/13 02:14:03;;;;;;;9.23;7.93;;;20.80;99.90;;;;;;5072123;28;20170;-68
2022/07/13 02:16:29;;;;;;;8.73;7.75;;;20.70;99.90;;;;;;5070839;28;20033;-68
2022/07/13 02:18:55;;;;;;;14.27;8.50;;;20.70;99.90;;;;;;5072216;28;20101;-68
2022/07/13 02:21:20;;;;;;;11.88;8.70;;;20.70;99.90;;;;;;5071435;28;20037;-68
2022/07/13 02:23:46;;;;;;;13.85;9.25;;;20.70;99.90;;;;;;5077931;28;20047;-67
2022/07/13 02:26:11;;;;;;;12.57;9.30;;;20.70;99.90;;;;;;5085692;28;20104;-67
2022/07/13 02:28:37;;;;;;;15.00;9.18;;;20.70;99.90;;;;;;5075271;28;20526;-68
2022/07/13 02:31:02;;;;;;;10.07;8.90;;;20.70;99.90;;;;;;5072049;28;20086;-67
2022/07/13 02:33:28;;;;;;;9.88;8.77;;;20.70;99.90;;;;;;5070699;28;20495;-68
2022/07/13 02:35:53;;;;;;;9.48;8.30;;;20.70;99.90;;;;;;5071629;28;20139;-68
2022/07/13 02:38:19;;;;;;;13.15;8.48;;;20.70;99.90;;;;;;5069472;28;20150;-68
2022/07/13 02:40:45;;;;;;;11.77;8.32;;;20.70;99.90;;;;;;5071926;28;20550;-68
2022/07/13 02:43:10;;;;;;;14.10;7.65;;;20.70;99.90;;;;;;5070308;28;20429;-67
2022/07/13 02:45:36;;;;;;;10.55;6.70;;;20.70;99.90;;;;;;5071640;28;20040;-68
2022/07/13 02:48:02;;;;;;;9.07;8.18;;;20.70;99.90;;;;;;5072084;28;20169;-67
2022/07/13 02:50:27;;;;;;;13.38;7.47;;;20.70;99.90;;;;;;5071701;28;20044;-68
2022/07/13 02:52:53;;;;;;;9.23;7.90;;;20.70;99.90;;;;;;5071306;28;20124;-67
2022/07/13 02:55:19;;;;;;;10.00;8.25;;;20.70;99.90;;;;;;5071510;28;20087;-68
2022/07/13 02:57:45;;;;;;;11.55;8.18;;;20.70;99.90;;;;;;5071293;28;20106;-67
2022/07/13 03:00:12;;;;;;;9.93;8.85;;;20.70;99.90;;;;;;5071418;28;20548;-68
2022/07/13 03:02:37;;;;;;;12.32;9.07;;;20.70;99.90;;;;;;5070993;28;20492;-68
2022/07/13 03:05:03;;;;;;;10.70;9.18;;;20.60;99.90;;;;;;5071297;28;20044;-68
2022/07/13 03:07:29;;;;;;;10.13;8.07;;;20.70;99.90;;;;;;5071278;28;20094;-68
2022/07/13 03:09:55;;;;;;;9.60;8.60;;;20.70;99.90;;;;;;5071180;28;20040;-67
2022/07/13 03:12:20;;;;;;;11.07;8.15;;;20.70;99.90;;;;;;5071370;28;20423;-68
2022/07/13 03:14:46;;;;;;;14.20;9.77;;;20.70;99.90;;;;;;5071350;28;20048;-68
2022/07/13 03:17:11;;;;;;;14.35;9.13;;;20.60;99.90;;;;;;5070752;28;20174;-68
2022/07/13 03:19:37;;;;;;;12.93;9.15;;;20.60;99.90;;;;;;5071030;28;20036;-68
2022/07/13 03:22:04;;;;;;;12.63;9.05;;;20.60;99.90;;;;;;5069698;28;20055;-68
2022/07/13 03:24:30;;;;;;;13.65;10.10;;;20.60;99.90;;;;;;5070730;28;20049;-69
2022/07/13 03:26:56;;;;;;;12.82;9.30;;;20.60;99.90;;;;;;5069345;28;20051;-68
2022/07/13 03:29:21;;;;;;;12.10;9.02;;;20.60;99.90;;;;;;5070781;28;20488;-69
2022/07/13 03:31:47;;;;;;;10.90;9.80;;;20.60;99.90;;;;;;5074562;28;20037;-69
2022/07/13 03:34:12;;;;;;;11.65;9.48;;;20.50;99.90;;;;;;5079229;28;20041;-69
2022/07/13 03:36:38;;;;;;;10.65;9.25;;;20.60;99.90;;;;;;5075103;28;20040;-69
2022/07/13 03:39:04;;;;;;;15.05;9.63;;;20.50;99.90;;;;;;5067827;28;20357;-69
2022/07/13 03:41:29;;;;;;;11.40;9.35;;;20.50;99.90;;;;;;5070274;28;20043;-69
2022/07/13 03:43:55;;;;;;;11.10;9.30;;;20.50;99.90;;;;;;5070287;28;20040;-68
2022/07/13 03:46:20;;;;;;;13.07;9.35;;;20.50;99.90;;;;;;5070093;28;20431;-69
2022/07/13 03:48:46;;;;;;;12.38;10.02;;;20.50;99.90;;;;;;5068346;28;20479;-69
2022/07/13 03:51:11;;;;;;;12.75;9.07;;;20.50;99.90;;;;;;5067958;28;20089;-69
2022/07/13 03:53:37;;;;;;;9.48;8.45;;;20.50;99.90;;;;;;5068577;28;20045;-69
2022/07/13 03:56:03;;;;;;;10.57;9.32;;;20.50;99.90;;;;;;5070526;28;20091;-69
2022/07/13 03:58:28;;;;;;;13.50;9.88;;;20.50;99.90;;;;;;5070747;28;20040;-66
2022/07/13 04:00:55;;;;;;;12.00;9.32;;;20.50;99.90;;;;;;5069318;28;20052;-68
2022/07/13 04:03:20;;;;;;;11.38;8.93;;;20.50;99.90;;;;;;5070502;28;20071;-67
2022/07/13 04:05:46;;;;;;;13.57;9.40;;;20.40;99.90;;;;;;5070593;28;20036;-67
2022/07/13 04:08:11;;;;;;;11.75;9.00;;;20.40;99.90;;;;;;5070428;28;20452;-67
2022/07/13 04:10:37;;;;;;;14.48;9.65;;;20.40;99.90;;;;;;5070400;28;20036;-67
2022/07/13 04:13:02;;;;;;;14.05;9.70;;;20.40;99.90;;;;;;5070081;28;20044;-68
2022/07/13 04:15:28;;;;;;;11.23;9.25;;;20.40;99.90;;;;;;5070609;28;20127;-68
2022/07/13 04:17:53;;;;;;;11.80;8.73;;;20.40;99.90;;;;;;5070375;28;20052;-67
2022/07/13 04:20:19;;;;;;;13.45;9.85;;;20.50;99.90;;;;;;5068800;28;20045;-67
2022/07/13 04:22:45;;;;;;;13.07;9.50;;;20.40;99.90;;;;;;5070061;28;20067;-68
2022/07/13 04:25:11;;;;;;;10.32;8.88;;;20.50;99.90;;;;;;5070480;28;20053;-68
2022/07/13 04:27:37;;;;;;;10.05;8.70;;;20.50;99.90;;;;;;5068932;28;20095;-68
2022/07/13 04:30:03;;;;;;;13.38;9.18;;;20.50;99.90;;;;;;5070457;28;20044;-67
2022/07/13 04:32:29;;;;;;;15.60;9.27;;;20.50;99.90;;;;;;5070313;28;20124;-67
2022/07/13 04:34:54;;;;;;;10.90;9.00;;;20.50;99.90;;;;;;5069159;28;20036;-68
2022/07/13 04:37:20;;;;;;;10.23;8.27;;;20.50;99.90;;;;;;5070278;28;20044;-69
2022/07/13 04:39:45;;;;;;;10.32;8.18;;;20.50;99.90;;;;;;5070972;28;20044;-69
2022/07/13 04:42:11;;;;;;;11.55;8.52;;;20.50;99.90;;;;;;5088713;28;20036;-68
2022/07/13 04:44:36;;;;;;;12.70;8.60;;;20.50;99.90;;;;;;5081347;28;20036;-69
2022/07/13 04:47:02;;;;;;;10.88;8.38;;;20.50;99.90;;;;;;5070875;28;20123;-68
2022/07/13 04:49:28;;;;;;;11.15;8.32;;;20.50;99.90;;;;;;5070218;28;20040;-69
2022/07/13 04:51:53;;;;;;;11.40;8.18;;;20.50;99.90;;;;;;5070291;28;20132;-68
2022/07/13 04:54:20;;;;;;;9.70;8.50;;;20.50;99.90;;;;;;5068595;28;20465;-69
2022/07/13 04:56:47;;;;;;;8.38;7.35;;;20.60;99.90;;;;;;5068741;28;20041;-69
2022/07/13 04:59:13;;;;;;;15.02;7.75;;;20.60;99.90;;;;;;5070240;28;20123;-68
2022/07/13 05:01:39;;;;;;;9.95;7.57;;;20.60;99.90;;;;;;5071553;28;20120;-68
2022/07/13 05:04:05;;;;;;;9.88;7.65;;;20.60;99.90;;;;;;5072627;28;20051;-68
2022/07/13 05:06:31;;;;;;;9.07;6.95;;;20.60;99.90;;;;;;5072707;28;20055;-69
2022/07/13 05:08:57;;;;;;;11.73;7.70;;;20.60;99.90;;;;;;5073696;28;20048;-69
2022/07/13 05:11:23;;;;;;;14.35;7.40;;;20.60;99.90;;;;;;5073655;28;20036;-69
2022/07/13 05:13:49;;;;;;;10.23;6.60;;;20.70;99.90;;;;;;5073418;28;20105;-68
2022/07/13 05:16:15;;;;;;;8.80;6.95;;;20.70;99.90;;;;;;5073665;28;20059;-68
2022/07/13 05:18:40;;;;;;;7.55;6.65;;;20.70;99.90;;;;;;5073559;28;20044;-68
2022/07/13 05:21:06;;;;;;;7.38;6.45;;;20.70;99.90;;;;;;5073543;28;20074;-69
2022/07/13 05:23:33;;;;;;;9.05;5.90;;;20.80;99.90;;;;;;5071952;28;20119;-69
2022/07/13 05:25:58;;;;;;;7.07;6.13;;;20.80;99.90;;;;;;5073324;28;20040;-66
2022/07/13 05:28:25;;;;;;;6.82;6.13;;;20.90;99.90;;;;;;5071421;28;20040;-69
2022/07/13 05:30:50;;;;;;;7.57;6.68;;;20.90;99.90;;;;;;5073369;28;20404;-69
2022/07/13 05:33:18;;;;;;;8.70;6.80;;;20.90;99.90;;;;;;5073131;28;20037;-68
2022/07/13 05:35:44;;;;;;;7.95;6.97;;;20.90;99.90;;;;;;5073164;28;20573;-66
2022/07/13 05:38:09;;;;;;;7.53;6.38;;;20.90;99.90;;;;;;5073023;28;20032;-66
2022/07/13 05:40:35;;;;;;;8.90;6.78;;;21.00;99.90;;;;;;5073318;28;20033;-69
2022/07/13 05:43:00;;;;;;;7.78;6.45;;;21.00;99.90;;;;;;5072999;28;20663;-69
2022/07/13 05:45:26;;;;;;;7.57;6.32;;;21.00;99.90;;;;;;5073474;28;20554;-69
2022/07/13 05:47:52;;;;;;;7.03;5.82;;;21.10;99.90;;;;;;5078367;28;20067;-69
2022/07/13 05:50:17;;;;;;;6.57;5.88;;;21.10;99.90;;;;;;5089390;28;20040;-69
2022/07/13 05:52:43;;;;;;;7.15;5.43;;;21.10;99.90;;;;;;5084126;28;20048;-66
2022/07/13 05:55:10;;;;;;;7.55;4.93;;;21.20;99.90;;;;;;5073327;28;20040;-67
2022/07/13 05:57:37;;;;;;;5.85;4.82;;;21.20;99.90;;;;;;5072844;28;20040;-68
2022/07/13 06:00:05;;;;;;;7.75;4.85;;;21.30;99.90;;;;;;5071613;28;20536;-67
2022/07/13 06:02:31;;;;;;;5.78;4.75;;;21.30;99.90;;;;;;5072796;28;20441;-67
2022/07/13 06:04:57;;;;;;;5.15;4.65;;;21.30;99.90;;;;;;5073016;28;20036;-70
2022/07/13 06:07:22;;;;;;;8.15;4.40;;;21.40;99.90;;;;;;5071540;28;20046;-69
2022/07/13 06:09:49;;;;;;;6.70;4.47;;;21.40;99.90;;;;;;5071221;28;20079;-70
2022/07/13 06:12:15;;;;;;;4.80;4.30;;;21.50;99.90;;;;;;5070597;28;20052;-70
2022/07/13 06:14:41;;;;;;;7.20;4.05;;;21.50;99.90;;;;;;5072521;28;20386;-70
2022/07/13 06:17:06;;;;;;;7.75;4.43;;;21.50;99.90;;;;;;5072287;28;20140;-69
2022/07/13 06:19:33;;;;;;;5.10;4.30;;;21.60;99.90;;;;;;5088928;28;20035;-69
2022/07/13 06:21:59;;;;;;;6.93;4.50;;;21.60;99.90;;;;;;5111315;28;20043;-69
2022/07/13 06:24:25;;;;;;;5.05;3.70;;;21.70;99.90;;;;;;5112875;28;20055;-69
2022/07/13 06:26:50;;;;;;;4.47;3.83;;;21.70;99.90;;;;;;5107394;28;20043;-70
2022/07/13 06:29:16;;;;;;;5.82;4.38;;;21.80;99.90;;;;;;5082044;28;20032;-69
2022/07/13 06:31:41;;;;;;;7.63;4.60;;;21.80;99.90;;;;;;5092579;28;20036;-69
2022/07/13 06:34:07;;;;;;;7.10;4.35;;;21.90;99.90;;;;;;5092469;28;20036;-69
2022/07/13 06:36:34;;;;;;;5.80;4.40;;;21.90;99.90;;;;;;5092256;28;20070;-68
2022/07/13 06:39:00;;;;;;;6.05;4.40;;;22.00;99.90;;;;;;5092383;28;20051;-69
2022/07/13 06:41:26;;;;;;;6.90;4.22;;;22.00;99.90;;;;;;5092258;28;20408;-69
2022/07/13 06:43:51;;;;;;;6.47;3.90;;;22.10;99.90;;;;;;5091181;28;20127;-69
2022/07/13 06:46:17;;;;;;;7.25;3.78;;;22.10;99.90;;;;;;5092341;28;20044;-69
2022/07/13 06:48:42;;;;;;;5.35;3.50;;;22.20;99.90;;;;;;5092377;28;20046;-69
2022/07/13 06:51:08;;;;;;;4.00;3.60;;;22.30;99.90;;;;;;5092268;28;20757;-68
2022/07/13 06:53:33;;;;;;;8.68;3.72;;;22.30;99.90;;;;;;5091863;28;20044;-68
2022/07/13 06:55:59;;;;;;;6.97;4.25;;;22.30;99.90;;;;;;5092169;28;20403;-68
2022/07/13 06:58:24;;;;;;;6.80;3.75;;;22.40;99.90;;;;;;5105537;28;20046;-68
2022/07/13 07:00:50;;;;;;;8.63;4.50;;;22.50;99.90;;;;;;5112124;28;20103;-68
2022/07/13 07:03:18;;;;;;;8.00;3.97;;;22.60;99.90;;;;;;5090741;28;20042;-66
2022/07/13 07:05:44;;;;;;;7.28;3.95;;;22.70;99.90;;;;;;5092010;28;20190;-66
2022/07/13 07:08:09;;;;;;;5.47;3.72;;;22.80;99.90;;;;;;5091708;28;20494;-66
2022/07/13 07:10:35;;;;;;;11.85;3.97;;;23.00;99.90;;;;;;5091761;28;20048;-66
2022/07/13 07:13:00;;;;;;;6.00;3.80;;;23.20;99.90;;;;;;5090069;28;20093;-66
2022/07/13 07:15:26;;;;;;;6.15;4.55;;;23.30;99.90;;;;;;5091711;28;20036;-67
2022/07/13 07:17:51;;;;;;;10.75;4.32;;;23.40;99.90;;;;;;5091464;28;20047;-66
2022/07/13 07:20:17;;;;;;;6.65;3.75;;;23.40;99.90;;;;;;5090097;28;20040;-67
2022/07/13 07:22:45;;;;;;;8.35;4.43;;;23.40;99.90;;;;;;5091347;28;20036;-67
2022/07/13 07:25:11;;;;;;;7.47;4.35;;;23.50;99.90;;;;;;5090856;28;20036;-68
2022/07/13 07:27:39;;;;;;;7.68;4.35;;;23.50;99.90;;;;;;5091669;28;20431;-68
2022/07/13 07:30:05;;;;;;;9.38;4.53;;;23.60;99.90;;;;;;5091406;28;20036;-70
2022/07/13 07:32:31;;;;;;;10.70;4.10;;;23.60;99.90;;;;;;5091054;28;20461;-70
2022/07/13 07:34:57;;;;;;;7.65;5.43;;;23.60;99.90;;;;;;5089897;28;20118;-69
2022/07/13 07:37:23;;;;;;;7.43;4.40;;;23.60;99.90;;;;;;5091083;28;20048;-70
2022/07/13 07:39:49;;;;;;;6.90;4.95;;;23.60;99.90;;;;;;5089994;28;20754;-70
2022/07/13 07:42:14;;;;;;;6.63;4.43;;;23.60;99.90;;;;;;5091391;28;20040;-67
2022/07/13 07:44:40;;;;;;;8.55;4.75;;;23.70;99.90;;;;;;5090920;28;20032;-67
2022/07/13 07:47:06;;;;;;;7.15;5.65;;;23.70;99.90;;;;;;5091013;28;20547;-67
2022/07/13 07:49:31;;;;;;;6.60;5.05;;;23.70;99.90;;;;;;5090965;28;20196;-67
2022/07/13 07:51:57;;;;;;;6.25;4.70;;;23.90;99.90;;;;;;5091022;28;20057;-67
2022/07/13 07:54:22;;;;;;;6.60;4.70;;;23.90;99.90;;;;;;5090497;28;20503;-67
2022/07/13 07:56:48;;;;;;;8.18;5.35;;;23.90;99.90;;;;;;5091018;28;20492;-67
2022/07/13 07:59:14;;;;;;;9.90;6.07;;;24.10;99.90;;;;;;5089558;28;20131;-67
2022/07/13 08:01:40;;;;;;;11.27;5.38;;;24.10;99.90;;;;;;5091056;28;20047;-67
2022/07/13 08:04:06;;;;;;;8.00;5.40;;;24.20;99.90;;;;;;5095551;28;20115;-67
2022/07/13 08:06:32;;;;;;;9.55;5.78;;;24.30;99.90;;;;;;5108621;28;20028;-67
2022/07/13 08:08:57;;;;;;;9.82;6.00;;;24.50;99.90;;;;;;5114514;28;20043;-66
2022/07/13 08:11:23;;;;;;;7.53;5.88;;;24.60;99.90;;;;;;5092388;28;20129;-67
2022/07/13 08:13:49;;;;;;;7.00;5.40;;;24.60;99.90;;;;;;5091209;28;20066;-67
2022/07/13 08:16:16;;;;;;;13.27;6.60;;;24.80;99.90;;;;;;5090915;28;20432;-67
2022/07/13 08:18:42;;;;;;;10.75;6.32;;;25.00;99.90;;;;;;5090908;28;20036;-67
2022/07/13 08:21:08;;;;;;;10.10;5.80;;;25.00;99.90;;;;;;5089161;28;20640;-67
2022/07/13 08:23:53;;;;;;;8.05;5.45;;;25.10;99.90;;;;;;5090172;28;20170;-67
2022/07/13 08:26:23;;;;;;;7.85;6.25;;;25.20;99.90;;;;;;5090645;28;20139;-67
2022/07/13 08:28:51;;;;;;;12.32;6.38;;;25.20;99.90;;;;;;5090831;28;20120;-67
2022/07/13 08:31:22;;;;;;;7.35;5.32;;;25.40;99.90;;;;;;5090533;28;20043;-67
2022/07/13 08:39:17;;;;;;;8.07;6.25;;;25.70;99.90;;;;;;5093322;28;20048;-67
2022/07/13 08:41:43;;;;;;;11.02;6.00;;;25.80;99.90;;;;;;5094606;28;20040;-67
2022/07/13 08:44:09;;;;;;;8.15;5.47;;;25.80;99.90;;;;;;5093287;28;20067;-67
2022/07/13 08:46:35;;;;;;;10.23;5.82;;;25.90;99.90;;;;;;5094970;28;20064;-67
2022/07/13 08:49:02;;;;;;;9.43;5.75;;;25.90;99.90;;;;;;5094687;28;20032;-67
2022/07/13 08:51:34;;;;;;;8.70;5.55;;;26.00;99.90;;;;;;5094464;28;20036;-67
2022/07/13 08:54:01;;;;;;;11.20;6.07;;;26.00;99.90;;;;;;5094374;28;20093;-67
2022/07/13 08:56:27;;;;;;;6.82;5.10;;;26.10;99.90;;;;;;5094333;28;20127;-67
2022/07/13 08:58:52;;;;;;;11.18;6.70;;;26.10;99.90;;;;;;5094432;28;20158;-67
2022/07/13 09:01:19;;;;;;;7.70;5.50;;;26.20;99.90;;;;;;5094424;28;20036;-67
2022/07/13 09:03:46;;;;;;;8.52;5.38;;;26.20;99.90;;;;;;5092804;28;20048;-67
2022/07/13 09:06:40;;;;;;;7.45;4.97;;;26.20;99.90;;;;;;5094276;28;20032;-67
2022/07/13 09:09:07;;;;;;;8.40;4.55;;;26.30;99.90;;;;;;5094127;28;20036;-67
2022/07/13 09:11:34;;;;;;;8.60;4.97;;;26.30;99.90;;;;;;5094230;28;20039;-67
2022/07/13 09:13:59;;;;;;;7.05;4.90;;;26.40;99.90;;;;;;5094522;28;20074;-67
2022/07/13 09:16:27;;;;;;;8.63;4.57;;;26.60;99.90;;;;;;5118739;28;20039;-67
2022/07/13 09:18:57;;;;;;;6.05;4.75;;;26.70;99.90;;;;;;5107147;28;20094;-67
2022/07/13 09:21:24;;;;;;;7.32;5.47;;;26.60;99.90;;;;;;5094076;28;20086;-67
2022/07/13 09:24:01;;;;;;;12.35;4.97;;;26.70;99.90;;;;;;5092685;28;20048;-67
2022/07/13 09:26:46;;;;;;;10.38;5.05;;;26.70;99.90;;;;;;5092728;28;20044;-67
2022/07/13 09:29:13;;;;;;;8.75;4.75;;;26.70;99.90;;;;;;5094044;28;20358;-68
2022/07/13 09:31:55;;;;;;;9.15;5.03;;;26.80;99.90;;;;;;5093690;28;20572;-67
2022/07/13 09:34:43;;;;;;;14.05;4.95;;;26.80;99.90;;;;;;5093326;28;20055;-68
2022/07/13 09:37:10;;;;;;;7.32;4.93;;;26.90;99.90;;;;;;5092139;28;20076;-68
2022/07/13 09:39:54;;;;;;;8.68;5.10;;;27.10;99.90;;;;;;5093526;28;20464;-67
2022/07/13 09:42:26;;;;;;;8.43;4.72;;;27.10;99.90;;;;;;5093521;28;20192;-67
2022/07/13 09:47:41;;;;;;;9.02;5.22;;;27.20;99.90;;;;;;5092737;28;20007;-67
2022/07/13 09:50:07;;;;;;;7.35;5.38;;;27.20;99.90;;;;;;5093353;28;20407;-67
2022/07/13 09:52:32;;;;;;;6.10;4.82;;;27.20;99.90;;;;;;5091910;28;20370;-68
2022/07/13 09:55:00;;;;;;;7.90;4.63;;;27.30;99.90;;;;;;5093124;28;20043;-67
2022/07/13 09:57:28;;;;;;;9.70;4.45;;;27.30;99.90;;;;;;5093373;28;20043;-68
2022/07/13 09:59:55;;;;;;;9.43;5.38;;;27.30;99.90;;;;;;5093187;28;20044;-67
2022/07/13 10:02:22;;;;;;;11.05;3.95;;;27.30;99.90;;;;;;5092873;28;20039;-68
2022/07/13 10:04:49;;;;;;;7.57;3.83;;;27.40;99.90;;;;;;5093057;28;20036;-67
2022/07/13 10:07:15;;;;;;;4.68;3.92;;;27.50;99.90;;;;;;5093102;28;20075;-67
2022/07/13 10:09:42;;;;;;;5.32;3.90;;;27.50;99.90;;;;;;5092722;28;20119;-67
2022/07/13 10:12:09;;;;;;;8.05;3.72;;;27.50;99.90;;;;;;5093014;28;20039;-67
2022/07/13 10:14:36;;;;;;;5.95;3.10;;;27.60;99.90;;;;;;5092771;28;20412;-67
2022/07/13 10:17:06;;;;;;;6.38;3.50;;;27.60;99.90;;;;;;5092805;28;20040;-68
2022/07/13 10:19:33;;;;;;;5.18;3.22;;;27.70;99.90;;;;;;5092880;28;20043;-68
2022/07/13 10:22:11;;;;;;;4.30;3.25;;;27.60;99.90;;;;;;5091422;28;20051;-67
2022/07/13 10:24:37;;;;;;;4.40;2.78;;;27.70;99.90;;;;;;5094206;28;20044;-69
2022/07/13 10:27:25;;;;;;;9.50;3.30;;;27.80;99.90;;;;;;5117279;28;20133;-67
2022/07/13 10:29:56;;;;;;;5.85;3.10;;;27.80;99.90;;;;;;5105145;28;20040;-68
2022/07/13 10:32:32;;;;;;;6.53;3.55;;;27.80;99.90;;;;;;5091452;28;20036;-68
2022/07/13 10:35:09;;;;;;;6.22;3.03;;;28.00;99.90;;;;;;5092821;28;20048;-68
2022/07/13 10:37:57;;;;;;;7.72;3.60;;;27.90;99.90;;;;;;5092719;28;20040;-68
2022/07/13 10:40:23;;;;;;;4.70;3.20;;;28.10;99.90;;;;;;5092347;28;20040;-68
2022/07/13 10:42:55;;;;;;;4.32;3.13;;;28.10;99.90;;;;;;5092142;28;20036;-68
2022/07/13 10:45:38;;;;;;;5.32;3.17;;;28.20;99.90;;;;;;5074360;28;20036;-68
2022/07/13 10:48:21;;;;;;;6.30;3.40;;;28.30;99.90;;;;;;5090872;28;20189;-68
2022/07/13 10:50:57;;;;;;;5.38;3.70;;;28.30;99.90;;;;;;5092307;28;20047;-68
2022/07/13 10:53:37;;;;;;;5.32;3.13;;;28.50;99.90;;;;;;5091791;28;20059;-68
2022/07/13 10:56:03;;;;;;;7.30;3.15;;;28.60;99.90;;;;;;5092205;28;20040;-68
2022/07/13 10:58:32;;;;;;;12.60;3.47;;;28.60;99.90;;;;;;5091636;28;20507;-67
2022/07/13 11:01:00;;;;;;;6.20;3.20;;;28.70;99.90;;;;;;5091802;28;20475;-68
2022/07/13 11:03:38;;;;;;;5.85;2.67;;;28.70;99.90;;;;;;5090665;28;20064;-68
2022/07/13 11:28:12;;;;;;;4.63;2.88;;;28.00;99.90;;;;;;5091144;28;20068;-68
2022/07/13 12:29:27;;;;;;;3.67;1.42;;;29.00;96.50;;;;;;5090088;28;20043;-68
2022/07/13 12:31:52;;;;;;;2.00;1.60;;;29.00;96.60;;;;;;5091025;28;20101;-67
2022/07/13 12:34:20;;;;;;;4.63;1.98;;;29.10;97.10;;;;;;5089203;28;20131;-68
2022/07/13 12:36:50;;;;;;;4.05;1.85;;;29.10;96.80;;;;;;5089023;28;20036;-68
2022/07/13 12:39:35;;;;;;;3.45;1.63;;;29.10;96.60;;;;;;5089528;28;20433;-68
2022/07/13 12:42:01;;;;;;;1.80;1.70;;;29.00;96.90;;;;;;5104578;28;20051;-67
2022/07/13 12:44:29;;;;;;;4.57;1.90;;;29.10;97.20;;;;;;5111365;28;20040;-68
2022/07/13 12:46:58;;;;;;;4.20;1.55;;;29.30;96.50;;;;;;5089536;28;20036;-68
2022/07/13 12:49:34;;;;;;;4.68;1.55;;;29.10;96.70;;;;;;5090954;28;20055;-67
2022/07/13 12:52:08;;;;;;;6.13;1.70;;;29.10;96.00;;;;;;5089396;28;20101;-68
2022/07/13 12:54:49;;;;;;;5.95;2.22;;;29.00;96.10;;;;;;5088668;28;20040;-68
2022/07/13 12:57:17;;;;;;;4.38;1.85;;;29.00;96.70;;;;;;5088952;28;20061;-67
2022/07/13 13:00:11;;;;;;;3.75;1.83;;;29.00;96.80;;;;;;5088959;28;20093;-67
2022/07/13 13:02:37;;;;;;;4.18;2.00;;;29.10;96.60;;;;;;5088706;28;20040;-67
2022/07/13 13:05:06;;;;;;;3.70;1.83;;;29.00;96.90;;;;;;5090237;28;20040;-67
2022/07/13 13:07:35;;;;;;;4.85;1.85;;;28.80;97.00;;;;;;5088701;28;20549;-67
2022/07/13 13:10:01;;;;;;;6.10;2.05;;;28.90;97.20;;;;;;5088831;28;20040;-67
2022/07/13 13:12:26;;;;;;;13.40;2.38;;;29.00;96.60;;;;;;5090273;28;20039;-67
2022/07/13 13:14:52;;;;;;;4.75;2.00;;;28.70;96.80;;;;;;5090161;28;20071;-67
2022/07/13 13:17:18;;;;;;;5.50;2.47;;;28.40;97.50;;;;;;5090163;28;20043;-67
2022/07/13 13:19:43;;;;;;;5.68;1.90;;;28.10;97.80;;;;;;5090267;28;20043;-67
2022/07/13 13:22:09;;;;;;;9.32;2.35;;;27.90;98.20;;;;;;5090351;28;20465;-67
2022/07/13 13:24:34;;;;;;;5.53;2.22;;;27.70;98.70;;;;;;5093791;28;20040;-67
2022/07/13 13:27:00;;;;;;;3.17;1.80;;;27.60;98.90;;;;;;5093748;28;20058;-67
2022/07/13 13:32:11;;;;;;;7.30;2.85;;;27.60;99.80;;;;;;5093847;28;20052;-67
2022/07/13 13:34:36;;;;;;;5.93;2.15;;;27.60;99.90;;;;;;5093505;28;20036;-67
2022/07/13 13:37:02;;;;;;;6.53;2.33;;;27.60;99.90;;;;;;5093780;28;20032;-67
2022/07/13 13:39:28;;;;;;;2.90;1.98;;;27.40;99.90;;;;;;5093929;28;20040;-67
2022/07/13 13:41:54;;;;;;;4.05;2.20;;;27.60;99.90;;;;;;5093787;28;20055;-67
2022/07/13 13:44:19;;;;;;;2.72;1.75;;;27.30;99.90;;;;;;5093613;28;20036;-67
2022/07/13 13:46:45;;;;;;;3.35;2.15;;;27.20;99.90;;;;;;5094173;28;20352;-67
2022/07/13 13:49:11;;;;;;;5.05;2.38;;;27.40;99.90;;;;;;5093053;28;20078;-67
2022/07/13 13:51:38;;;;;;;6.75;2.40;;;27.40;99.90;;;;;;5113695;28;20064;-66
2022/07/13 13:54:04;;;;;;;5.43;2.33;;;27.20;99.90;;;;;;5109392;28;20044;-67
2022/07/13 13:56:29;;;;;;;4.10;2.42;;;27.20;99.90;;;;;;5094064;28;20066;-67
2022/07/13 13:58:55;;;;;;;5.55;2.60;;;27.30;99.90;;;;;;5093357;28;20051;-67
2022/07/13 14:01:20;;;;;;;6.32;2.85;;;27.30;99.90;;;;;;5093752;28;20036;-67
2022/07/13 14:03:47;;;;;;;3.92;2.13;;;27.20;99.90;;;;;;5093026;28;20529;-67
2022/07/13 14:06:13;;;;;;;8.30;2.35;;;27.00;99.90;;;;;;5092122;28;20093;-66
2022/07/13 14:08:43;;;;;;;5.93;2.00;;;27.20;99.90;;;;;;5092923;28;20071;-67
2022/07/13 14:11:12;;;;;;;4.07;2.40;;;27.50;99.90;;;;;;5092824;28;20496;-67
2022/07/13 14:13:41;;;;;;;6.85;2.28;;;27.60;99.90;;;;;;5092489;28;20047;-67